createdAt,value
2019-04-16T00:00:37.366Z,12.40
2019-04-16T00:05:47.253Z,12.30
2019-04-16T00:11:00.073Z,12.30
2019-04-16T00:16:07.576Z,12.30
2019-04-16T00:21:31.022Z,12.30
2019-04-16T00:26:38.074Z,12.20
2019-04-16T00:31:53.493Z,12.10
2019-04-16T00:36:59.534Z,12.10
2019-04-16T00:42:07.189Z,12.10
2019-04-16T00:47:14.536Z,12.00
2019-04-16T00:52:22.034Z,12.00
2019-04-16T00:57:30.961Z,12.00
2019-04-16T01:02:38.585Z,12.10
2019-04-16T01:07:45.368Z,12.20
2019-04-16T01:12:54.908Z,12.20
2019-04-16T01:18:00.956Z,12.20
2019-04-16T01:23:08.580Z,12.30
2019-04-16T01:28:16.797Z,12.30
2019-04-16T01:33:40.556Z,12.10
2019-04-16T01:39:10.962Z,12.00
2019-04-16T01:44:04.533Z,12.00
2019-04-16T01:49:12.087Z,12.10
2019-04-16T01:54:22.542Z,12.00
2019-04-16T01:59:28.856Z,12.10
2019-04-16T02:04:35.998Z,12.10
2019-04-16T02:09:42.949Z,12.00
2019-04-16T02:14:51.018Z,12.00
2019-04-16T02:19:57.098Z,12.00
2019-04-16T02:25:04.070Z,12.00
2019-04-16T02:30:11.116Z,12.00
2019-04-16T02:35:17.811Z,12.00
2019-04-16T02:40:23.815Z,12.10
2019-04-16T02:45:31.323Z,12.10
2019-04-16T02:50:56.435Z,12.10
2019-04-16T02:56:22.610Z,12.00
2019-04-16T03:01:49.408Z,11.70
2019-04-16T03:06:55.187Z,11.80
2019-04-16T03:12:04.926Z,12.00
2019-04-16T03:17:29.204Z,12.50
2019-04-16T03:22:36.007Z,13.00
2019-04-16T03:27:42.853Z,13.20
2019-04-16T03:32:53.267Z,13.20
2019-04-16T03:38:01.626Z,13.20
2019-04-16T03:43:09.941Z,13.10
2019-04-16T03:48:17.609Z,13.10
2019-04-16T03:53:24.562Z,13.00
2019-04-16T03:58:31.578Z,12.90
2019-04-16T04:03:42.460Z,13.00
2019-04-16T04:08:53.082Z,12.40
2019-04-16T04:13:59.331Z,12.00
2019-04-16T04:19:14.029Z,11.80
2019-04-16T04:24:19.192Z,11.70
2019-04-16T04:29:29.134Z,11.70
2019-04-16T04:34:36.122Z,11.70
2019-04-16T04:39:47.250Z,11.50
2019-04-16T04:44:53.903Z,11.50
2019-04-16T04:50:03.562Z,11.50
2019-04-16T04:55:10.171Z,11.40
2019-04-16T05:00:18.637Z,11.40
2019-04-16T05:05:33.056Z,11.30
2019-04-16T05:10:45.343Z,11.20
2019-04-16T05:15:52.309Z,11.10
2019-04-16T05:21:00.181Z,11.30
2019-04-16T05:26:09.798Z,11.30
2019-04-16T05:31:16.119Z,11.40
2019-04-16T05:36:22.191Z,11.60
2019-04-16T05:41:29.687Z,11.70
2019-04-16T05:46:38.352Z,11.70
2019-04-16T05:51:44.614Z,11.80
2019-04-16T05:56:55.496Z,11.90
2019-04-16T06:02:18.186Z,12.00
2019-04-16T06:07:24.332Z,12.20
2019-04-16T06:12:43.254Z,12.10
2019-04-16T06:18:17.482Z,12.20
2019-04-16T06:23:40.773Z,12.40
2019-04-16T06:29:13.645Z,12.60
2019-04-16T06:34:34.587Z,12.60
2019-04-16T06:40:00.637Z,12.90
2019-04-16T06:45:17.486Z,12.90
2019-04-16T06:50:40.989Z,13.10
2019-04-16T06:56:10.412Z,12.80
2019-04-16T07:01:36.812Z,12.70
2019-04-16T07:07:07.857Z,13.00
2019-04-16T07:12:17.177Z,13.40
2019-04-16T07:17:24.613Z,13.80
2019-04-16T07:22:31.490Z,14.30
2019-04-16T07:27:45.086Z,14.90
2019-04-16T07:33:13.683Z,15.10
2019-04-16T07:38:57.687Z,15.00
2019-04-16T07:44:13.832Z,15.30
2019-04-16T07:49:43.119Z,15.40
2019-04-16T07:55:13.850Z,15.80
2019-04-16T08:00:21.546Z,16.20
2019-04-16T08:05:27.970Z,16.80
2019-04-16T08:10:34.335Z,16.80
2019-04-16T08:15:41.565Z,16.40
2019-04-16T08:21:00.570Z,16.20
2019-04-16T08:26:03.524Z,16.10
2019-04-16T08:31:10.770Z,16.20
2019-04-16T08:36:16.309Z,16.60
2019-04-16T08:41:23.682Z,16.40
2019-04-16T08:46:30.903Z,16.20
2019-04-16T08:51:38.649Z,16.20
2019-04-16T08:56:44.672Z,16.50
2019-04-16T09:01:51.372Z,17.00
2019-04-16T09:07:11.432Z,16.80
2019-04-16T09:12:11.942Z,16.80
2019-04-16T09:17:28.858Z,16.70
2019-04-16T09:22:48.296Z,16.80
2019-04-16T09:27:46.538Z,17.10
2019-04-16T09:33:01.024Z,17.00
2019-04-16T09:38:26.523Z,17.00
2019-04-16T09:43:35.669Z,17.50
2019-04-16T09:48:42.906Z,17.80
2019-04-16T09:53:50.297Z,17.50
2019-04-16T09:59:01.643Z,17.60
2019-04-16T10:04:11.216Z,17.60
2019-04-16T10:09:21.949Z,17.70
2019-04-16T10:14:29.197Z,17.40
2019-04-16T10:19:37.088Z,17.40
2019-04-16T10:25:00.647Z,18.30
2019-04-16T10:30:24.747Z,18.60
2019-04-16T10:35:32.882Z,18.50
2019-04-16T10:40:43.307Z,18.80
2019-04-16T10:46:27.450Z,18.70
2019-04-16T10:51:56.014Z,18.80
2019-04-16T10:57:26.343Z,19.20
2019-04-16T11:02:41.554Z,19.10
2019-04-16T11:07:51.854Z,19.20
2019-04-16T11:12:59.499Z,19.30
2019-04-16T11:18:08.581Z,19.20
2019-04-16T11:23:16.627Z,18.80
2019-04-16T11:28:23.666Z,18.90
2019-04-16T11:33:31.156Z,18.80
2019-04-16T11:38:38.779Z,19.30
2019-04-16T11:43:46.145Z,19.80
2019-04-16T11:48:52.277Z,19.60
2019-04-16T11:54:00.062Z,20.30
2019-04-16T11:59:07.610Z,19.90
2019-04-16T12:04:32.875Z,19.50
2019-04-16T12:09:57.856Z,19.30
2019-04-16T12:15:12.578Z,19.50
2019-04-16T12:20:37.815Z,19.90
2019-04-16T12:26:08.893Z,20.50
2019-04-16T12:31:29.929Z,20.40
2019-04-16T12:37:03.769Z,20.30
2019-04-16T12:42:30.099Z,21.20
2019-04-16T12:47:41.225Z,21.40
2019-04-16T12:53:16.705Z,21.30
2019-04-16T12:58:34.294Z,20.40
2019-04-16T13:03:56.888Z,20.60
2019-04-16T13:09:32.340Z,20.80
2019-04-16T13:15:00.787Z,21.10
2019-04-16T13:20:29.303Z,21.50
2019-04-16T13:25:43.235Z,21.60
2019-04-16T13:30:51.116Z,21.90
2019-04-16T13:35:58.772Z,22.10
2019-04-16T13:41:04.745Z,22.90
2019-04-16T13:46:12.122Z,22.60
2019-04-16T13:51:21.973Z,22.50
2019-04-16T13:56:33.924Z,22.50
2019-04-16T14:01:50.901Z,22.30
2019-04-16T14:06:58.655Z,22.70
2019-04-16T14:12:05.279Z,22.80
2019-04-16T14:17:17.712Z,23.20
2019-04-16T14:22:23.197Z,23.60
2019-04-16T14:27:31.951Z,24.30
2019-04-16T14:32:39.754Z,24.10
2019-04-16T14:37:49.602Z,23.80
2019-04-16T14:43:00.028Z,23.60
2019-04-16T14:48:09.691Z,24.10
2019-04-16T14:53:44.215Z,23.60
2019-04-16T14:59:05.368Z,24.00
2019-04-16T15:04:30.418Z,24.20
2019-04-16T15:10:03.269Z,24.80
2019-04-16T15:15:19.419Z,25.20
2019-04-16T15:20:44.603Z,25.80
2019-04-16T15:26:27.714Z,24.80
2019-04-16T15:31:50.495Z,24.20
2019-04-16T15:37:06.664Z,24.10
2019-04-16T15:42:37.803Z,24.50
2019-04-16T15:48:09.971Z,24.00
2019-04-16T15:53:33.795Z,21.70
2019-04-16T15:59:03.337Z,19.80
2019-04-16T16:04:12.266Z,19.00
2019-04-16T16:09:23.883Z,18.60
2019-04-16T16:14:34.113Z,18.20
2019-04-16T16:19:40.208Z,17.90
2019-04-16T16:24:47.531Z,17.80
2019-04-16T16:29:53.552Z,17.60
2019-04-16T16:35:01.040Z,17.20
2019-04-16T16:40:12.029Z,17.00
2019-04-16T16:45:17.027Z,17.00
2019-04-16T16:50:23.983Z,17.20
2019-04-16T16:55:38.470Z,17.10
2019-04-16T17:00:49.277Z,16.90
2019-04-16T17:05:57.393Z,16.90
2019-04-16T17:11:16.097Z,16.70
2019-04-16T17:16:14.487Z,16.70
2019-04-16T17:21:21.323Z,16.70
2019-04-16T17:26:27.260Z,16.80
2019-04-16T17:31:36.079Z,16.90
2019-04-16T17:36:44.768Z,16.90
2019-04-16T17:42:04.142Z,16.60
2019-04-16T17:47:32.015Z,16.70
2019-04-16T17:52:41.381Z,16.40
2019-04-16T17:58:04.432Z,16.20
2019-04-16T18:03:37.678Z,16.20
2019-04-16T18:09:10.522Z,16.20
2019-04-16T18:14:51.057Z,16.20
2019-04-16T18:20:30.154Z,16.00
2019-04-16T18:25:56.715Z,16.00
2019-04-16T18:31:05.983Z,16.00
2019-04-16T18:36:29.519Z,15.90
2019-04-16T18:41:49.384Z,15.80
2019-04-16T18:47:16.639Z,15.90
2019-04-16T18:52:23.837Z,15.80
2019-04-16T18:57:30.932Z,15.70
2019-04-16T19:02:41.858Z,15.60
2019-04-16T19:07:47.445Z,15.60
2019-04-16T19:12:54.432Z,15.60
2019-04-16T19:18:17.252Z,15.50
2019-04-16T19:23:09.987Z,15.40
2019-04-16T19:28:20.027Z,15.30
2019-04-16T19:33:24.568Z,15.30
2019-04-16T19:38:32.122Z,15.30
2019-04-16T19:43:40.280Z,15.40
2019-04-16T19:48:57.042Z,15.50
2019-04-16T19:54:05.891Z,15.50
2019-04-16T19:59:13.098Z,15.40
2019-04-16T20:04:22.678Z,15.50
2019-04-16T20:09:30.048Z,15.70
2019-04-16T20:14:37.753Z,15.70
2019-04-16T20:19:58.047Z,15.70
2019-04-16T20:25:04.503Z,15.70
2019-04-16T20:30:13.068Z,15.30
2019-04-16T20:35:20.825Z,15.50
2019-04-16T20:40:29.718Z,15.70
2019-04-16T20:45:38.003Z,15.60
2019-04-16T20:50:45.153Z,15.60
2019-04-16T20:55:52.614Z,15.50
2019-04-16T21:01:03.267Z,15.40
2019-04-16T21:06:12.923Z,15.40
2019-04-16T21:11:19.430Z,15.40
2019-04-16T21:16:33.447Z,15.10
2019-04-16T21:21:40.501Z,15.20
2019-04-16T21:26:51.291Z,15.20
2019-04-16T21:32:02.077Z,15.20
2019-04-16T21:37:34.039Z,15.30
2019-04-16T21:42:45.627Z,15.30
2019-04-16T21:47:54.977Z,15.20
2019-04-16T21:53:02.462Z,15.00
2019-04-16T21:58:10.098Z,15.00
2019-04-16T22:03:27.122Z,14.90
2019-04-16T22:08:33.704Z,14.80
2019-04-16T22:13:41.155Z,14.60
2019-04-16T22:18:50.199Z,14.60
2019-04-16T22:23:56.416Z,14.40
2019-04-16T22:29:03.179Z,14.10
2019-04-16T22:34:10.931Z,13.90
2019-04-16T22:39:28.694Z,13.80
2019-04-16T22:44:59.627Z,13.60
2019-04-16T22:50:16.720Z,13.40
2019-04-16T22:55:16.818Z,13.20
2019-04-16T23:00:44.126Z,13.20
2019-04-16T23:05:48.701Z,13.10
2019-04-16T23:10:54.579Z,13.10
2019-04-16T23:16:02.187Z,12.90
2019-04-16T23:21:11.372Z,12.90
2019-04-16T23:26:19.109Z,12.60
2019-04-16T23:31:26.831Z,12.60
2019-04-16T23:36:33.775Z,12.40
2019-04-16T23:41:41.579Z,12.50
2019-04-16T23:47:10.217Z,12.50
2019-04-16T23:52:20.530Z,12.70
2019-04-16T23:57:35.835Z,12.90
